createdAt,value
2019-04-01T00:00:58.649Z,0.80
2019-04-01T00:01:58.637Z,1.00
2019-04-01T00:02:58.615Z,1.10
2019-04-01T00:03:58.604Z,1.10
2019-04-01T00:04:58.594Z,1.10
2019-04-01T00:05:58.585Z,1.20
2019-04-01T00:06:58.592Z,1.30
2019-04-01T00:07:58.563Z,1.10
2019-04-01T00:08:58.549Z,1.00
2019-04-01T00:09:58.542Z,1.50
2019-04-01T00:10:58.525Z,1.20
2019-04-01T00:11:58.528Z,1.30
2019-04-01T00:12:58.505Z,0.90
2019-04-01T00:13:58.494Z,0.80
2019-04-01T00:14:58.481Z,1.10
2019-04-01T00:15:58.481Z,0.90
2019-04-01T00:16:58.475Z,0.80
2019-04-01T00:17:58.459Z,0.70
2019-04-01T00:19:03.507Z,1.10
2019-04-01T00:19:59.427Z,1.00
2019-04-01T00:20:58.425Z,1.20
2019-04-01T00:21:58.421Z,1.10
2019-04-01T00:22:58.610Z,1.10
2019-04-01T00:23:58.386Z,1.20
2019-04-01T00:24:58.373Z,1.20
2019-04-01T00:25:58.366Z,0.90
2019-04-01T00:26:58.362Z,1.20
2019-04-01T00:27:58.341Z,1.00
2019-04-01T00:28:58.332Z,0.90
2019-04-01T00:29:58.320Z,1.10
2019-04-01T00:30:58.310Z,1.00
2019-04-01T00:31:58.337Z,1.20
2019-04-01T00:32:58.285Z,1.10
2019-04-01T00:33:58.277Z,1.00
2019-04-01T00:34:58.272Z,1.10
2019-04-01T00:35:58.257Z,1.20
2019-04-01T00:36:58.273Z,1.10
2019-04-01T00:37:58.234Z,1.40
2019-04-01T00:38:58.228Z,0.90
2019-04-01T00:39:58.227Z,1.00
2019-04-01T00:40:58.202Z,0.90
2019-04-01T00:41:58.190Z,1.00
2019-04-01T00:42:58.188Z,0.90
2019-04-01T00:43:58.174Z,1.10
2019-04-01T00:44:58.166Z,1.40
2019-04-01T00:45:58.161Z,1.40
2019-04-01T00:46:58.143Z,1.60
2019-04-01T00:47:58.151Z,1.20
2019-04-01T00:48:58.114Z,1.10
2019-04-01T00:49:58.107Z,0.90
2019-04-01T00:50:58.095Z,1.40
2019-04-01T00:51:58.089Z,0.90
2019-04-01T00:52:58.116Z,0.90
2019-04-01T00:53:58.069Z,0.80
2019-04-01T00:54:58.067Z,0.90
2019-04-01T00:55:58.043Z,1.20
2019-04-01T00:56:58.042Z,1.00
2019-04-01T00:57:58.034Z,1.20
2019-04-01T00:58:58.024Z,1.10
2019-04-01T00:59:58.007Z,1.10
2019-04-01T01:00:58.000Z,1.10
2019-04-01T01:01:57.983Z,1.20
2019-04-01T01:02:57.978Z,1.10
2019-04-01T01:03:57.962Z,0.80
2019-04-01T01:04:57.960Z,1.20
2019-04-01T01:05:57.948Z,1.10
2019-04-01T01:06:57.935Z,1.20
2019-04-01T01:07:57.933Z,1.20
2019-04-01T01:08:57.912Z,1.20
2019-04-01T01:09:57.895Z,1.20
2019-04-01T01:10:57.885Z,1.20
2019-04-01T01:11:57.885Z,1.10
2019-04-01T01:12:57.967Z,0.90
2019-04-01T01:13:57.854Z,1.20
2019-04-01T01:14:57.859Z,1.10
2019-04-01T01:15:57.846Z,1.20
2019-04-01T01:16:57.824Z,1.10
2019-04-01T01:17:57.829Z,0.90
2019-04-01T01:18:57.803Z,1.30
2019-04-01T01:19:57.791Z,1.10
2019-04-01T01:20:57.779Z,1.10
2019-04-01T01:21:57.769Z,1.20
2019-04-01T01:22:57.806Z,1.20
2019-04-01T01:23:57.749Z,1.30
2019-04-01T01:24:57.737Z,1.00
2019-04-01T01:25:57.730Z,1.10
2019-04-01T01:26:57.719Z,1.00
2019-04-01T01:27:57.708Z,1.00
2019-04-01T01:28:57.709Z,1.00
2019-04-01T01:29:57.685Z,1.10
2019-04-01T01:30:57.682Z,1.10
2019-04-01T01:31:57.666Z,1.30
2019-04-01T01:32:57.653Z,1.10
2019-04-01T01:33:57.655Z,0.90
2019-04-01T01:34:57.629Z,1.30
2019-04-01T01:35:57.629Z,0.80
2019-04-01T01:36:57.612Z,1.40
2019-04-01T01:37:57.610Z,1.20
2019-04-01T01:38:57.598Z,1.50
2019-04-01T01:39:57.585Z,1.50
2019-04-01T01:40:57.564Z,1.20
2019-04-01T01:41:57.553Z,1.00
2019-04-01T01:42:57.542Z,1.10
2019-04-01T01:43:57.539Z,1.20
2019-04-01T01:44:57.518Z,1.20
2019-04-01T01:45:57.513Z,1.00
2019-04-01T01:46:57.504Z,1.30
2019-04-01T01:47:57.488Z,1.10
2019-04-01T01:48:57.486Z,1.50
2019-04-01T01:49:57.467Z,0.90
2019-04-01T01:50:57.456Z,1.50
2019-04-01T01:51:57.446Z,1.10
2019-04-01T01:52:57.434Z,1.20
2019-04-01T01:53:57.435Z,0.90
2019-04-01T01:54:57.418Z,1.50
2019-04-01T01:55:57.414Z,1.50
2019-04-01T01:56:57.395Z,0.90
2019-04-01T01:57:57.383Z,1.00
2019-04-01T01:58:57.379Z,1.10
2019-04-01T01:59:57.362Z,1.00
2019-04-01T02:00:57.354Z,1.00
2019-04-01T02:01:57.346Z,1.30
2019-04-01T02:02:57.339Z,1.20
2019-04-01T02:03:57.341Z,1.10
2019-04-01T02:04:57.312Z,1.40
2019-04-01T02:05:57.303Z,1.30
2019-04-01T02:06:57.294Z,1.20
2019-04-01T02:07:57.280Z,1.60
2019-04-01T02:08:57.285Z,1.50
2019-04-01T02:09:57.262Z,1.20
2019-04-01T02:10:57.249Z,1.10
2019-04-01T02:11:57.244Z,1.70
2019-04-01T02:12:57.242Z,1.70
2019-04-01T02:13:57.239Z,1.20
2019-04-01T02:14:57.213Z,0.90
2019-04-01T02:15:57.203Z,1.50
2019-04-01T02:16:57.190Z,1.60
2019-04-01T02:17:57.180Z,1.20
2019-04-01T02:18:57.187Z,1.40
2019-04-01T02:19:57.156Z,1.00
2019-04-01T02:20:57.151Z,1.10
2019-04-01T02:21:57.126Z,1.30
2019-04-01T02:22:57.116Z,1.10
2019-04-01T02:23:57.115Z,1.40
2019-04-01T02:24:57.093Z,1.60
2019-04-01T02:25:57.087Z,1.20
2019-04-01T02:26:57.076Z,0.80
2019-04-01T02:27:57.064Z,1.10
2019-04-01T02:28:57.065Z,1.70
2019-04-01T02:29:57.043Z,1.20
2019-04-01T02:30:57.039Z,1.10
2019-04-01T02:31:57.072Z,1.40
2019-04-01T02:32:57.013Z,1.50
2019-04-01T02:33:57.016Z,1.00
2019-04-01T02:34:56.995Z,1.10
2019-04-01T02:35:56.978Z,1.30
2019-04-01T02:36:56.970Z,1.10
2019-04-01T02:37:56.967Z,1.00
2019-04-01T02:38:56.956Z,0.90
2019-04-01T02:39:56.940Z,1.30
2019-04-01T02:40:56.995Z,1.30
2019-04-01T02:41:56.925Z,1.40
2019-04-01T02:42:56.904Z,1.30
2019-04-01T02:43:56.960Z,1.40
2019-04-01T02:44:56.894Z,1.30
2019-04-01T02:45:56.868Z,0.90
2019-04-01T02:46:56.871Z,1.10
2019-04-01T02:47:56.848Z,1.40
2019-04-01T02:48:56.877Z,1.00
2019-04-01T02:49:56.829Z,1.10
2019-04-01T02:50:56.824Z,1.10
2019-04-01T02:51:56.812Z,1.20
2019-04-01T02:52:56.796Z,0.70
2019-04-01T02:53:56.829Z,1.10
2019-04-01T02:54:56.778Z,1.10
2019-04-01T02:55:56.768Z,1.20
2019-04-01T02:56:56.761Z,1.10
2019-04-01T02:57:56.745Z,1.20
2019-04-01T02:58:56.737Z,1.70
2019-04-01T02:59:56.734Z,1.90
2019-04-01T03:00:56.857Z,2.70
2019-04-01T03:01:56.704Z,2.40
2019-04-01T03:02:56.691Z,2.00
2019-04-01T03:03:56.694Z,1.10
2019-04-01T03:04:56.700Z,0.90
2019-04-01T03:05:56.675Z,1.20
2019-04-01T03:06:56.659Z,1.30
2019-04-01T03:07:56.649Z,1.30
2019-04-01T03:08:56.634Z,1.20
2019-04-01T03:09:56.633Z,1.40
2019-04-01T03:10:56.751Z,1.30
2019-04-01T03:11:56.610Z,1.20
2019-04-01T03:12:56.597Z,1.70
2019-04-01T03:13:56.585Z,1.10
2019-04-01T03:14:56.593Z,1.30
2019-04-01T03:15:56.587Z,1.40
2019-04-01T03:16:56.575Z,1.50
2019-04-01T03:17:56.549Z,1.00
2019-04-01T03:18:56.530Z,1.20
2019-04-01T03:19:56.532Z,1.50
2019-04-01T03:20:56.651Z,1.30
2019-04-01T03:21:56.509Z,1.10
2019-04-01T03:22:56.488Z,1.20
2019-04-01T03:23:56.483Z,1.20
2019-04-01T03:24:56.509Z,1.20
2019-04-01T03:25:56.454Z,1.20
2019-04-01T03:26:56.454Z,1.10
2019-04-01T03:27:56.428Z,1.20
2019-04-01T03:28:56.423Z,1.60
2019-04-01T03:29:56.438Z,1.20
2019-04-01T03:30:56.421Z,1.10
2019-04-01T03:31:56.397Z,1.60
2019-04-01T03:32:56.419Z,1.30
2019-04-01T03:33:56.369Z,1.40
2019-04-01T03:34:56.434Z,1.20
2019-04-01T03:35:56.344Z,1.40
2019-04-01T03:36:56.332Z,1.20
2019-04-01T03:37:56.365Z,1.30
2019-04-01T03:38:56.323Z,1.30
2019-04-01T03:39:56.317Z,1.10
2019-04-01T03:40:56.289Z,1.30
2019-04-01T03:41:56.280Z,1.40
2019-04-01T03:42:56.267Z,1.50
2019-04-01T03:43:56.264Z,1.40
2019-04-01T03:44:56.277Z,1.30
2019-04-01T03:45:56.237Z,1.70
2019-04-01T03:46:56.226Z,1.70
2019-04-01T03:47:56.214Z,1.20
2019-04-01T03:48:56.213Z,1.60
2019-04-01T03:49:56.211Z,1.50
2019-04-01T03:50:56.196Z,1.20
2019-04-01T03:51:56.175Z,1.70
2019-04-01T03:52:56.166Z,1.70
2019-04-01T03:53:56.160Z,1.20
2019-04-01T03:54:56.176Z,1.40
2019-04-01T03:55:56.145Z,1.30
2019-04-01T03:56:56.126Z,1.50
2019-04-01T03:57:56.113Z,1.50
2019-04-01T03:58:56.103Z,1.30
2019-04-01T03:59:56.111Z,1.60
2019-04-01T04:00:56.083Z,1.50
2019-04-01T04:01:56.069Z,1.50
2019-04-01T04:02:56.055Z,1.70
2019-04-01T04:03:56.048Z,1.80
2019-04-01T04:04:56.045Z,1.80
2019-04-01T04:05:56.037Z,1.10
2019-04-01T04:06:56.047Z,1.60
2019-04-01T04:07:56.007Z,1.80
2019-04-01T04:08:55.987Z,1.30
2019-04-01T04:09:55.993Z,1.50
2019-04-01T04:10:55.972Z,1.80
2019-04-01T04:11:55.961Z,1.40
2019-04-01T04:12:55.957Z,1.80
2019-04-01T04:13:55.947Z,1.30
2019-04-01T04:14:55.958Z,2.10
2019-04-01T04:15:55.922Z,2.00
2019-04-01T04:16:55.906Z,1.70
2019-04-01T04:17:55.901Z,1.50
2019-04-01T04:18:55.884Z,1.80
2019-04-01T04:19:55.872Z,1.40
2019-04-01T04:20:55.874Z,1.70
2019-04-01T04:21:55.847Z,1.30
2019-04-01T04:22:55.839Z,1.80
2019-04-01T04:23:55.907Z,1.40
2019-04-01T04:24:55.817Z,1.40
2019-04-01T04:25:55.837Z,1.40
2019-04-01T04:26:55.808Z,1.60
2019-04-01T04:27:55.791Z,1.50
2019-04-01T04:28:55.819Z,1.60
2019-04-01T04:29:55.773Z,1.70
2019-04-01T04:30:55.776Z,1.50
2019-04-01T04:31:55.747Z,1.30
2019-04-01T04:32:55.733Z,1.60
2019-04-01T04:33:55.730Z,1.60
2019-04-01T04:34:57.523Z,1.80
2019-04-01T04:35:55.720Z,1.50
2019-04-01T04:36:55.695Z,1.40
2019-04-01T04:37:55.683Z,1.40
2019-04-01T04:38:55.669Z,1.50
2019-04-01T04:39:55.659Z,1.60
2019-04-01T04:40:55.654Z,1.50
2019-04-01T04:41:55.635Z,2.20
2019-04-01T04:42:55.628Z,1.60
2019-04-01T04:43:55.613Z,1.90
2019-04-01T04:44:55.602Z,1.40
2019-04-01T04:45:55.607Z,2.10
2019-04-01T04:46:55.584Z,1.70
2019-04-01T04:47:55.570Z,1.40
2019-04-01T04:48:55.561Z,1.50
2019-04-01T04:49:55.546Z,1.80
2019-04-01T04:50:55.557Z,1.90
2019-04-01T04:51:55.539Z,1.80
2019-04-01T04:52:55.529Z,2.00
2019-04-01T04:53:55.522Z,1.90
2019-04-01T04:54:55.501Z,1.90
2019-04-01T04:55:55.503Z,1.90
2019-04-01T04:56:55.485Z,1.70
2019-04-01T04:57:55.470Z,1.50
2019-04-01T04:58:55.479Z,2.00
2019-04-01T04:59:55.463Z,1.60
2019-04-01T05:00:55.451Z,1.70
2019-04-01T05:01:55.434Z,1.80
2019-04-01T05:02:55.416Z,1.80
2019-04-01T05:03:55.409Z,2.10
2019-04-01T05:04:55.401Z,1.70
2019-04-01T05:05:55.400Z,2.90
2019-04-01T05:06:55.376Z,1.70
2019-04-01T05:07:55.362Z,2.30
2019-04-01T05:08:55.354Z,2.00
2019-04-01T05:09:55.350Z,2.50
2019-04-01T05:10:55.338Z,2.00
2019-04-01T05:11:55.357Z,1.90
2019-04-01T05:12:55.316Z,2.30
2019-04-01T05:13:55.299Z,2.00
2019-04-01T05:14:55.292Z,2.20
2019-04-01T05:15:55.295Z,2.00
2019-04-01T05:16:55.273Z,2.30
2019-04-01T05:17:55.259Z,1.70
2019-04-01T05:18:55.249Z,1.70
2019-04-01T05:19:55.238Z,2.00
2019-04-01T05:20:55.254Z,2.50
2019-04-01T05:21:55.220Z,2.50
2019-04-01T05:22:55.224Z,2.40
2019-04-01T05:23:55.193Z,2.20
2019-04-01T05:24:55.202Z,2.00
2019-04-01T05:25:55.188Z,2.60
2019-04-01T05:26:55.247Z,3.00
2019-04-01T05:27:55.258Z,2.30
2019-04-01T05:28:55.189Z,1.90
2019-04-01T05:29:55.129Z,2.10
2019-04-01T05:30:55.117Z,2.20
2019-04-01T05:31:55.125Z,2.00
2019-04-01T05:32:55.107Z,2.10
2019-04-01T05:33:55.983Z,1.90
2019-04-01T05:34:55.079Z,3.00
2019-04-01T05:35:55.110Z,2.30
2019-04-01T05:36:55.078Z,2.30
2019-04-01T05:37:55.051Z,2.10
2019-04-01T05:38:55.049Z,2.20
2019-04-01T05:39:55.229Z,2.70
2019-04-01T05:40:55.056Z,2.40
2019-04-01T05:41:55.028Z,2.00
2019-04-01T05:42:54.988Z,2.40
2019-04-01T05:43:54.980Z,2.80
2019-04-01T05:44:55.017Z,2.40
2019-04-01T05:45:55.083Z,2.80
2019-04-01T05:46:54.961Z,2.50
2019-04-01T05:47:54.941Z,3.00
2019-04-01T05:48:54.946Z,2.00
2019-04-01T05:49:54.939Z,1.90
2019-04-01T05:50:54.940Z,2.00
2019-04-01T05:51:54.939Z,2.20
2019-04-01T05:52:54.888Z,2.20
2019-04-01T05:53:54.873Z,2.30
2019-04-01T05:54:54.882Z,2.00
2019-04-01T05:55:54.856Z,2.10
2019-04-01T05:56:54.888Z,2.00
2019-04-01T05:57:54.833Z,2.20
2019-04-01T05:58:54.819Z,2.30
2019-04-01T05:59:54.819Z,2.00
2019-04-01T06:00:54.801Z,2.10
2019-04-01T06:01:54.799Z,2.30
2019-04-01T06:02:54.784Z,2.40
2019-04-01T06:03:54.782Z,2.50
2019-04-01T06:04:54.762Z,2.10
2019-04-01T06:05:54.810Z,1.80
2019-04-01T06:06:54.775Z,2.40
2019-04-01T06:07:54.738Z,1.90
2019-04-01T06:08:54.712Z,2.00
2019-04-01T06:09:54.701Z,2.10
2019-04-01T06:10:54.693Z,2.20
2019-04-01T06:11:54.700Z,2.20
2019-04-01T06:12:54.674Z,1.60
2019-04-01T06:13:54.673Z,1.90
2019-04-01T06:14:54.652Z,1.70
2019-04-01T06:15:54.654Z,2.10
2019-04-01T06:16:54.644Z,1.80
2019-04-01T06:17:54.620Z,1.90
2019-04-01T06:18:54.611Z,1.30
2019-04-01T06:19:54.628Z,2.00
2019-04-01T06:20:54.586Z,1.80
2019-04-01T06:21:54.597Z,1.80
2019-04-01T06:22:54.564Z,1.70
2019-04-01T06:23:54.559Z,1.80
2019-04-01T06:24:54.545Z,1.20
2019-04-01T06:25:54.545Z,1.70
2019-04-01T06:26:54.594Z,1.70
2019-04-01T06:27:54.518Z,1.70
2019-04-01T06:28:54.505Z,1.40
2019-04-01T06:29:54.493Z,2.00
2019-04-01T06:30:54.498Z,1.80
2019-04-01T06:31:54.483Z,1.80
2019-04-01T06:32:54.454Z,1.70
2019-04-01T06:33:54.449Z,1.70
2019-04-01T06:34:54.437Z,1.60
2019-04-01T06:35:54.427Z,1.30
2019-04-01T06:36:54.475Z,1.50
2019-04-01T06:37:54.410Z,1.50
2019-04-01T06:38:54.391Z,1.60
2019-04-01T06:39:54.383Z,1.70
2019-04-01T06:40:54.390Z,1.30
2019-04-01T06:41:54.419Z,1.30
2019-04-01T06:42:54.389Z,1.20
2019-04-01T06:43:54.338Z,1.10
2019-04-01T06:44:54.331Z,1.50
2019-04-01T06:45:54.318Z,1.40
2019-04-01T06:46:54.318Z,1.20
2019-04-01T06:47:54.314Z,1.30
2019-04-01T06:48:54.282Z,1.50
2019-04-01T06:49:54.281Z,1.40
2019-04-01T06:50:54.262Z,1.60
2019-04-01T06:51:54.260Z,1.40
2019-04-01T06:52:54.244Z,1.40
2019-04-01T06:53:54.247Z,1.70
2019-04-01T06:54:54.226Z,1.40
2019-04-01T06:55:54.251Z,1.00
2019-04-01T06:56:54.217Z,1.30
2019-04-01T06:57:54.192Z,1.30
2019-04-01T06:58:54.183Z,1.20
2019-04-01T06:59:54.161Z,1.30
2019-04-01T07:00:54.163Z,1.30
2019-04-01T07:01:54.161Z,1.30
2019-04-01T07:02:54.138Z,1.30
2019-04-01T07:03:54.138Z,0.90
2019-04-01T07:04:54.126Z,1.50
2019-04-01T07:05:54.099Z,1.20
2019-04-01T07:06:54.112Z,1.40
2019-04-01T07:07:54.076Z,0.90
2019-04-01T07:08:54.074Z,1.30
2019-04-01T07:09:54.065Z,1.20
2019-04-01T07:10:54.051Z,1.10
2019-04-01T07:11:54.043Z,1.30
2019-04-01T07:12:54.023Z,1.10
2019-04-01T07:13:54.011Z,1.20
2019-04-01T07:14:54.008Z,1.40
2019-04-01T07:15:54.009Z,1.10
2019-04-01T07:16:54.008Z,1.30
2019-04-01T07:17:53.976Z,1.10
2019-04-01T07:18:53.978Z,1.00
2019-04-01T07:19:53.952Z,1.00
2019-04-01T07:20:53.937Z,1.40
2019-04-01T07:21:54.515Z,0.90
2019-04-01T07:22:53.919Z,1.00
2019-04-01T07:23:53.899Z,1.20
2019-04-01T07:24:53.893Z,1.00
2019-04-01T07:25:53.884Z,1.10
2019-04-01T07:26:53.988Z,1.40
2019-04-01T07:27:53.871Z,1.50
2019-04-01T07:28:53.852Z,1.30
2019-04-01T07:29:53.840Z,0.80
2019-04-01T07:31:03.103Z,1.30
2019-04-01T07:31:53.821Z,1.10
2019-04-01T07:32:53.870Z,1.10
2019-04-01T07:33:53.838Z,1.20
2019-04-01T07:34:53.782Z,1.10
2019-04-01T07:35:53.770Z,0.90
2019-04-01T07:36:53.801Z,0.80
2019-04-01T07:37:53.762Z,0.70
2019-04-01T07:38:53.867Z,0.80
2019-04-01T07:39:53.731Z,1.10
2019-04-01T07:40:53.714Z,1.00
2019-04-01T07:41:53.705Z,1.10
2019-04-01T07:42:53.728Z,0.90
2019-04-01T07:43:53.689Z,0.70
2019-04-01T07:44:53.675Z,0.80
2019-04-01T07:45:53.660Z,0.70
2019-04-01T07:46:53.648Z,1.00
2019-04-01T07:47:53.649Z,0.70
2019-04-01T07:48:53.628Z,0.90
2019-04-01T07:49:53.630Z,0.90
2019-04-01T07:50:53.854Z,1.10
2019-04-01T07:51:53.597Z,1.30
2019-04-01T07:52:55.388Z,1.10
2019-04-01T07:53:53.577Z,1.20
2019-04-01T07:54:53.577Z,1.10
2019-04-01T07:55:53.564Z,1.10
2019-04-01T07:56:53.637Z,0.90
2019-04-01T07:57:53.552Z,1.10
2019-04-01T07:58:53.526Z,0.90
2019-04-01T07:59:56.785Z,0.90
2019-04-01T08:00:53.506Z,1.20
2019-04-01T08:01:53.509Z,1.00
2019-04-01T08:02:53.505Z,0.90
2019-04-01T08:03:53.480Z,1.10
2019-04-01T08:04:53.471Z,0.90
2019-04-01T08:05:53.461Z,1.20
2019-04-01T08:06:53.445Z,1.00
2019-04-01T08:07:53.455Z,1.10
2019-04-01T08:08:53.427Z,1.00
2019-04-01T08:09:53.410Z,1.00
2019-04-01T08:10:53.397Z,1.10
2019-04-01T08:11:53.401Z,0.90
2019-04-01T08:12:53.388Z,0.80
2019-04-01T08:13:53.363Z,1.00
2019-04-01T08:14:53.359Z,0.90
2019-04-01T08:15:53.407Z,1.10
2019-04-01T08:16:53.338Z,0.70
2019-04-01T08:17:53.339Z,1.30
2019-04-01T08:18:53.324Z,0.80
2019-04-01T08:19:53.312Z,1.00
2019-04-01T08:20:53.293Z,0.80
2019-04-01T08:21:53.287Z,0.90
2019-04-01T08:22:53.277Z,0.60
2019-04-01T08:23:53.266Z,0.90
2019-04-01T08:24:53.294Z,0.90
2019-04-01T08:25:53.238Z,0.80
2019-04-01T08:26:53.226Z,0.90
2019-04-01T08:27:53.229Z,1.00
2019-04-01T08:28:53.198Z,0.90
2019-04-01T08:29:53.195Z,0.90
2019-04-01T08:31:02.679Z,0.60
2019-04-01T08:32:02.641Z,0.70
2019-04-01T08:32:53.172Z,1.20
2019-04-01T08:34:02.178Z,0.90
2019-04-01T08:36:09.370Z,1.20
2019-04-01T08:37:18.581Z,1.40
2019-04-01T08:38:17.890Z,0.70
2019-04-01T08:39:18.629Z,1.10
2019-04-01T08:40:18.655Z,1.10
2019-04-01T08:41:18.679Z,0.90
2019-04-01T08:42:19.703Z,1.30
2019-04-01T08:43:18.245Z,1.20
2019-04-01T08:44:18.751Z,0.90
2019-04-01T08:45:09.245Z,1.00
2019-04-01T08:46:09.242Z,0.90
2019-04-01T08:47:09.223Z,0.70
2019-04-01T08:48:09.242Z,1.00
2019-04-01T08:49:09.206Z,0.90
2019-04-01T08:50:19.312Z,1.00
2019-04-01T08:51:09.181Z,0.80
2019-04-01T08:52:09.172Z,0.80
2019-04-01T08:53:09.174Z,0.90
2019-04-01T08:54:09.158Z,1.00
2019-04-01T08:55:09.137Z,0.80
2019-04-01T08:56:09.165Z,0.80
2019-04-01T08:57:09.114Z,0.70
2019-04-01T08:58:09.113Z,0.60
2019-04-01T08:59:09.165Z,0.70
2019-04-01T09:00:09.086Z,0.60
2019-04-01T09:01:09.094Z,0.90
2019-04-01T09:02:17.606Z,0.90
2019-04-01T09:03:10.059Z,0.80
2019-04-01T09:04:09.035Z,1.40
2019-04-01T09:05:09.033Z,1.00
2019-04-01T09:06:09.144Z,0.80
2019-04-01T09:07:09.004Z,0.70
2019-04-01T09:08:09.004Z,0.80
2019-04-01T09:09:08.979Z,0.60
2019-04-01T09:10:08.968Z,0.60
2019-04-01T09:11:08.958Z,0.70
2019-04-01T09:12:08.952Z,0.80
2019-04-01T09:13:08.956Z,0.70
2019-04-01T09:14:08.937Z,0.60
2019-04-01T09:15:08.916Z,0.80
2019-04-01T09:16:08.905Z,1.00
2019-04-01T09:17:08.897Z,0.50
2019-04-01T09:18:08.906Z,0.60
2019-04-01T09:19:08.871Z,0.50
2019-04-01T09:20:08.859Z,0.60
2019-04-01T09:21:08.850Z,0.50
2019-04-01T09:22:08.842Z,0.80
2019-04-01T09:23:08.838Z,0.90
2019-04-01T09:24:08.817Z,0.70
2019-04-01T09:25:08.821Z,0.70
2019-04-01T09:26:08.805Z,0.60
2019-04-01T09:27:08.784Z,0.70
2019-04-01T09:28:08.790Z,0.70
2019-04-01T09:29:08.775Z,0.70
2019-04-01T09:30:08.804Z,0.50
2019-04-01T09:31:08.756Z,0.60
2019-04-01T09:32:08.736Z,0.70
2019-04-01T09:33:08.735Z,0.80
2019-04-01T09:34:08.728Z,0.70
2019-04-01T09:35:08.715Z,0.70
2019-04-01T09:36:08.692Z,0.70
2019-04-01T09:37:08.682Z,0.70
2019-04-01T09:38:08.678Z,0.80
2019-04-01T09:39:08.657Z,0.60
2019-04-01T09:40:08.658Z,0.90
2019-04-01T09:41:08.637Z,1.00
2019-04-01T09:42:08.630Z,0.90
2019-04-01T09:43:08.636Z,0.70
2019-04-01T09:44:08.606Z,0.60
2019-04-01T09:45:08.594Z,0.80
2019-04-01T09:46:08.615Z,0.80
2019-04-01T09:47:08.571Z,1.00
2019-04-01T09:48:08.601Z,0.70
2019-04-01T09:49:08.550Z,0.80
2019-04-01T09:50:08.537Z,0.80
2019-04-01T09:51:08.533Z,1.00
2019-04-01T09:52:08.533Z,0.80
2019-04-01T09:53:08.518Z,1.10
2019-04-01T09:54:08.512Z,0.80
2019-04-01T09:55:08.487Z,0.70
2019-04-01T09:56:08.487Z,0.90
2019-04-01T09:57:17.359Z,0.80
2019-04-01T09:58:09.469Z,0.90
2019-04-01T09:59:08.563Z,0.90
2019-04-01T10:00:08.431Z,1.10
2019-04-01T10:01:08.424Z,0.90
2019-04-01T10:02:08.416Z,0.80
2019-04-01T10:03:08.414Z,0.70
2019-04-01T10:04:08.402Z,0.80
2019-04-01T10:05:08.382Z,0.80
2019-04-01T10:06:10.452Z,0.90
2019-04-01T10:07:08.366Z,0.70
2019-04-01T10:08:08.371Z,0.80
2019-04-01T10:09:08.359Z,1.10
2019-04-01T10:10:08.330Z,1.00
2019-04-01T10:11:08.324Z,1.00
2019-04-01T10:12:08.316Z,1.30
2019-04-01T10:13:08.312Z,1.20
2019-04-01T10:14:08.315Z,1.10
2019-04-01T10:15:08.294Z,1.70
2019-04-01T10:16:08.272Z,3.40
2019-04-01T10:17:08.298Z,1.40
2019-04-01T10:18:08.302Z,1.10
2019-04-01T10:19:08.332Z,1.00
2019-04-01T10:20:08.285Z,1.00
2019-04-01T10:21:08.230Z,1.10
2019-04-01T10:22:08.212Z,1.00
2019-04-01T10:23:08.203Z,1.20
2019-04-01T10:24:08.208Z,1.10
2019-04-01T10:25:08.189Z,1.00
2019-04-01T10:26:08.230Z,1.00
2019-04-01T10:27:08.165Z,1.00
2019-04-01T10:28:08.149Z,1.30
2019-04-01T10:29:15.704Z,1.30
2019-04-01T10:30:08.145Z,1.20
2019-04-01T10:31:08.133Z,1.10
2019-04-01T10:32:08.106Z,1.30
2019-04-01T10:33:08.103Z,1.10
2019-04-01T10:34:08.189Z,1.10
2019-04-01T10:35:08.087Z,1.30
2019-04-01T10:36:08.076Z,1.20
2019-04-01T10:37:08.095Z,0.70
2019-04-01T10:38:08.060Z,1.00
2019-04-01T10:39:08.064Z,1.10
2019-04-01T10:40:08.030Z,1.10
2019-04-01T10:41:08.041Z,1.10
2019-04-01T10:42:08.026Z,1.30
2019-04-01T10:43:08.007Z,1.20
2019-04-01T10:44:08.120Z,1.20
2019-04-01T10:45:08.112Z,1.20
2019-04-01T10:46:07.975Z,0.90
2019-04-01T10:47:08.002Z,1.20
2019-04-01T10:48:08.024Z,0.90
2019-04-01T10:49:08.024Z,1.30
2019-04-01T10:50:07.947Z,1.30
2019-04-01T10:51:07.955Z,1.10
2019-04-01T10:52:07.923Z,1.40
2019-04-01T10:53:08.000Z,1.40
2019-04-01T10:54:08.028Z,1.10
2019-04-01T10:55:07.982Z,1.10
2019-04-01T10:56:07.975Z,1.20
2019-04-01T10:57:07.885Z,1.10
2019-04-01T10:58:07.960Z,1.10
2019-04-01T10:59:07.869Z,1.20
2019-04-01T11:00:07.883Z,1.20
2019-04-01T11:01:07.842Z,1.50
2019-04-01T11:02:07.960Z,1.30
2019-04-01T11:03:07.872Z,1.20
2019-04-01T11:04:07.905Z,1.30
2019-04-01T11:05:07.853Z,1.10
2019-04-01T11:06:07.876Z,1.40
2019-04-01T11:07:07.846Z,1.60
2019-04-01T11:08:07.782Z,1.40
2019-04-01T11:09:07.906Z,1.30
2019-04-01T11:10:11.094Z,1.20
2019-04-01T11:11:07.740Z,1.40
2019-04-01T11:12:07.740Z,1.40
2019-04-01T11:13:07.720Z,1.60
2019-04-01T11:14:07.730Z,1.40
2019-04-01T11:15:07.719Z,1.30
2019-04-01T11:16:07.731Z,1.50
2019-04-01T11:17:07.684Z,1.20
2019-04-01T11:18:07.683Z,1.30
2019-04-01T11:19:07.687Z,1.40
2019-04-01T11:20:08.222Z,1.30
2019-04-01T11:21:07.675Z,1.40
2019-04-01T11:22:07.661Z,1.40
2019-04-01T11:23:07.658Z,1.30
2019-04-01T11:24:07.850Z,1.60
2019-04-01T11:25:07.611Z,1.20
2019-04-01T11:26:07.646Z,1.50
2019-04-01T11:27:07.598Z,1.30
2019-04-01T11:28:07.616Z,1.40
2019-04-01T11:29:07.602Z,1.40
2019-04-01T11:30:08.105Z,1.20
2019-04-01T11:31:07.576Z,1.60
2019-04-01T11:32:07.785Z,1.20
2019-04-01T11:33:08.096Z,1.40
2019-04-01T11:34:07.543Z,1.30
2019-04-01T11:35:07.609Z,1.60
2019-04-01T11:36:07.611Z,1.60
2019-04-01T11:37:07.519Z,2.00
2019-04-01T11:38:07.510Z,1.50
2019-04-01T11:39:07.575Z,2.00
2019-04-01T11:40:11.138Z,1.50
2019-04-01T11:41:07.471Z,1.30
2019-04-01T11:42:07.501Z,1.60
2019-04-01T11:43:07.444Z,1.50
2019-04-01T11:44:07.468Z,1.40
2019-04-01T11:45:07.433Z,1.60
2019-04-01T11:46:07.450Z,1.60
2019-04-01T11:47:07.427Z,1.50
2019-04-01T11:48:07.468Z,1.70
2019-04-01T11:49:07.448Z,1.40
2019-04-01T11:50:07.384Z,1.70
2019-04-01T11:51:07.384Z,1.90
2019-04-01T11:52:08.803Z,1.50
2019-04-01T11:53:07.405Z,1.50
2019-04-01T11:54:08.293Z,1.50
2019-04-01T11:55:08.901Z,1.30
2019-04-01T11:56:07.326Z,1.50
2019-04-01T11:57:07.317Z,1.50
2019-04-01T11:58:07.314Z,1.60
2019-04-01T11:59:08.364Z,1.50
2019-04-01T12:00:11.371Z,1.50
2019-04-01T12:01:08.322Z,1.40
2019-04-01T12:02:07.269Z,1.70
2019-04-01T12:03:07.267Z,1.70
2019-04-01T12:04:07.266Z,1.50
2019-04-01T12:05:07.250Z,1.60
2019-04-01T12:06:07.249Z,1.30
2019-04-01T12:07:07.224Z,1.60
2019-04-01T12:08:07.222Z,1.30
2019-04-01T12:09:07.218Z,1.40
2019-04-01T12:10:07.774Z,1.70
2019-04-01T12:11:07.190Z,1.40
2019-04-01T12:12:22.386Z,1.30
2019-04-01T12:13:08.171Z,1.50
2019-04-01T12:14:07.175Z,1.20
2019-04-01T12:15:07.146Z,1.10
2019-04-01T12:16:07.211Z,1.30
2019-04-01T12:17:07.136Z,1.10
2019-04-01T12:18:07.128Z,1.30
2019-04-01T12:19:07.155Z,1.20
2019-04-01T12:20:07.107Z,1.10
2019-04-01T12:21:07.638Z,1.30
2019-04-01T12:22:07.088Z,1.10
2019-04-01T12:23:07.100Z,1.30
2019-04-01T12:24:07.083Z,1.40
2019-04-01T12:25:07.079Z,1.40
2019-04-01T12:26:15.003Z,1.40
2019-04-01T12:27:08.048Z,1.40
2019-04-01T12:28:07.048Z,1.50
2019-04-01T12:29:07.054Z,1.70
2019-04-01T12:30:07.033Z,1.40
2019-04-01T12:31:07.020Z,1.40
2019-04-01T12:32:07.042Z,1.40
2019-04-01T12:33:06.995Z,1.20
2019-04-01T12:34:07.023Z,1.50
2019-04-01T12:35:07.014Z,1.40
2019-04-01T12:36:06.978Z,1.30
2019-04-01T12:37:06.988Z,1.70
2019-04-01T12:38:06.992Z,1.30
2019-04-01T12:39:06.946Z,1.60
2019-04-01T12:40:06.949Z,1.30
2019-04-01T12:41:06.921Z,1.30
2019-04-01T12:42:06.920Z,1.50
2019-04-01T12:43:06.909Z,1.30
2019-04-01T12:44:06.906Z,1.40
2019-04-01T12:45:06.907Z,1.80
2019-04-01T12:46:06.875Z,1.50
2019-04-01T12:47:06.902Z,1.40
2019-04-01T12:48:06.860Z,1.30
2019-04-01T12:49:06.941Z,1.50
2019-04-01T12:50:06.952Z,1.50
2019-04-01T12:51:06.827Z,1.50
2019-04-01T12:52:06.825Z,1.30
2019-04-01T12:53:06.829Z,1.10
2019-04-01T12:54:06.789Z,1.20
2019-04-01T12:55:06.797Z,1.10
2019-04-01T12:56:06.831Z,1.10
2019-04-01T12:57:06.757Z,1.20
2019-04-01T12:58:06.753Z,1.40
2019-04-01T12:59:06.741Z,1.20
2019-04-01T13:00:06.737Z,1.00
2019-04-01T13:01:06.721Z,1.10
2019-04-01T13:02:06.742Z,1.10
2019-04-01T13:03:06.704Z,1.20
2019-04-01T13:04:06.686Z,0.90
2019-04-01T13:05:06.677Z,1.30
2019-04-01T13:06:06.668Z,1.40
2019-04-01T13:07:07.369Z,1.20
2019-04-01T13:08:06.648Z,1.20
2019-04-01T13:09:06.634Z,1.20
2019-04-01T13:10:07.881Z,1.40
2019-04-01T13:11:06.679Z,1.30
2019-04-01T13:12:06.668Z,1.20
2019-04-01T13:13:06.607Z,1.10
2019-04-01T13:14:06.581Z,1.30
2019-04-01T13:15:06.605Z,1.10
2019-04-01T13:16:09.050Z,1.10
2019-04-01T13:17:06.540Z,0.90
2019-04-01T13:18:06.542Z,1.20
2019-04-01T13:19:06.518Z,1.10
2019-04-01T13:20:06.518Z,1.30